Time;durP1;ratioP1;P1;durP2;ratioP2;P2;SDS_P1;SDS_P2;PMS_P1;PMS_P2;Temp;Humidity;BMP_temperature;BMP_pressure;BME280_temperature;BME280_humidity;BME280_pressure;Samples;Min_cycle;Max_cycle;Signal;HPM_P1;HPM_P2
2023/04/23 00:02:12;;;;;;;5.23;4.50;;;;;;;16.35;77.35;99909.44;4924431;29;20262;-71
2023/04/23 00:04:39;;;;;;;5.40;4.40;;;;;;;16.33;77.34;99905.03;4919975;28;20212;-70
2023/04/23 00:07:07;;;;;;;6.27;4.67;;;;;;;16.31;77.79;99904.34;4927803;29;20646;-71
2023/04/23 00:09:35;;;;;;;5.83;4.63;;;;;;;16.29;77.95;99898.31;4925108;29;20682;-70
2023/04/23 00:12:02;;;;;;;5.23;4.73;;;;;;;16.29;78.14;99900.16;4925079;29;20242;-71
2023/04/23 00:14:29;;;;;;;5.17;4.47;;;;;;;16.28;78.39;99895.78;4924647;29;20216;-71
2023/04/23 00:16:56;;;;;;;4.87;4.47;;;;;;;16.29;78.70;99894.78;4931175;29;20912;-70
2023/04/23 00:19:22;;;;;;;6.10;5.03;;;;;;;16.27;79.00;99899.47;4930047;29;20620;-70
2023/04/23 00:21:49;;;;;;;5.97;4.97;;;;;;;16.28;79.27;99893.94;4929783;29;20235;-70
2023/04/23 00:24:15;;;;;;;8.53;5.10;;;;;;;16.28;79.67;99887.72;4928530;29;20311;-70
2023/04/23 00:26:43;;;;;;;5.17;4.60;;;;;;;16.28;79.83;99891.25;4930205;29;20479;-72
2023/04/23 00:29:10;;;;;;;6.63;4.70;;;;;;;16.27;80.00;99891.41;4929159;29;20596;-70
2023/04/23 00:31:36;;;;;;;7.30;5.53;;;;;;;16.28;80.00;99893.09;4930229;29;20850;-71
2023/04/23 00:34:03;;;;;;;5.87;5.27;;;;;;;16.26;80.43;99887.88;4929016;29;20208;-70
2023/04/23 00:36:29;;;;;;;5.43;4.87;;;;;;;16.25;80.60;99893.38;4926530;29;20217;-72
2023/04/23 00:38:56;;;;;;;5.73;5.13;;;;;;;16.25;80.95;99886.16;4928813;29;20223;-71
2023/04/23 00:41:23;;;;;;;5.73;5.13;;;;;;;16.26;81.41;99892.41;4930735;29;20221;-73
2023/04/23 00:43:52;;;;;;;4.83;4.40;;;;;;;16.23;81.10;99880.09;4929532;29;20299;-71
2023/04/23 00:46:19;;;;;;;4.90;4.50;;;;;;;16.20;81.36;99887.63;4931797;29;20216;-70
2023/04/23 00:48:46;;;;;;;5.70;5.20;;;;;;;16.17;81.20;99879.84;4926870;29;20219;-71
2023/04/23 00:51:12;;;;;;;5.90;4.87;;;;;;;16.12;81.08;99882.16;4929872;29;20298;-71
2023/04/23 00:53:39;;;;;;;5.07;4.57;;;;;;;16.07;81.30;99885.31;4932394;29;20219;-72
2023/04/23 00:56:07;;;;;;;5.10;4.67;;;;;;;16.04;81.90;99880.22;4930545;29;20212;-70
2023/04/23 00:58:34;;;;;;;5.93;4.67;;;;;;;16.02;82.10;99879.53;4930118;29;20666;-71
2023/04/23 01:01:03;;;;;;;6.23;4.13;;;;;;;16.00;82.20;99884.19;4929943;29;20215;-71
2023/04/23 01:03:30;;;;;;;4.70;4.30;;;;;;;15.98;82.45;99889.72;4928338;29;20222;-71
2023/04/23 01:05:58;;;;;;;5.10;3.77;;;;;;;15.93;82.03;99881.28;4920006;29;20765;-71
2023/04/23 01:08:25;;;;;;;4.27;3.47;;;;;;;15.88;82.45;99878.19;4930511;29;20231;-70
2023/04/23 01:10:53;;;;;;;4.13;3.10;;;;;;;15.83;82.40;99883.16;4928386;29;20222;-71
2023/04/23 01:13:21;;;;;;;4.30;3.47;;;;;;;15.78;82.45;99882.75;4928253;29;20270;-71
2023/04/23 01:15:47;;;;;;;5.67;3.93;;;;;;;15.74;82.80;99881.38;4926887;29;20686;-70
2023/04/23 01:18:18;;;;;;;4.63;3.23;;;;;;;15.70;83.15;99877.31;4928186;29;20230;-72
2023/04/23 01:20:44;;;;;;;4.53;3.97;;;;;;;15.66;82.98;99885.78;4932065;29;20206;-72
2023/04/23 01:23:12;;;;;;;3.93;3.60;;;;;;;15.59;83.32;99877.47;4932437;29;20475;-72
2023/04/23 01:25:39;;;;;;;4.97;3.77;;;;;;;15.54;83.36;99879.75;4932426;29;20211;-72
2023/04/23 01:28:06;;;;;;;6.30;4.17;;;;;;;15.49;83.92;99880.19;4933211;29;20227;-72
2023/04/23 01:30:33;;;;;;;5.57;4.23;;;;;;;15.47;84.08;99882.16;4932601;29;20760;-72
2023/04/23 01:33:00;;;;;;;3.83;3.53;;;;;;;15.44;84.30;99884.28;4933536;29;20229;-70
2023/04/23 01:35:27;;;;;;;4.00;3.60;;;;;;;15.40;84.45;99886.44;4933149;29;20593;-70
2023/04/23 01:37:54;;;;;;;5.13;3.83;;;;;;;15.35;84.81;99877.13;4930871;29;20209;-70
2023/04/23 01:40:22;;;;;;;5.80;3.90;;;;;;;15.31;84.78;99883.78;4929095;29;20209;-71
2023/04/23 01:42:50;;;;;;;5.70;4.20;;;;;;;15.27;84.79;99884.06;4928367;29;20233;-71
2023/04/23 01:45:18;;;;;;;5.50;3.93;;;;;;;15.21;84.54;99879.28;4932825;29;20221;-69
2023/04/23 01:47:45;;;;;;;4.30;3.90;;;;;;;15.16;84.51;99881.56;4931824;29;20222;-71
2023/04/23 01:50:11;;;;;;;4.57;4.07;;;;;;;15.13;84.50;99883.69;4932119;29;20266;-69
2023/04/23 01:52:39;;;;;;;4.33;3.93;;;;;;;15.10;84.58;99889.31;4927736;29;20226;-68
2023/04/23 01:55:06;;;;;;;4.43;4.03;;;;;;;15.03;83.97;99894.44;4933261;29;20388;-71
2023/04/23 01:57:33;;;;;;;4.57;4.17;;;;;;;15.00;83.71;99891.19;4932700;29;20740;-70
2023/04/23 02:00:06;;;;;;;4.97;4.50;;;;;;;14.96;83.71;99892.47;4929559;29;20209;-70
2023/04/23 02:02:33;;;;;;;6.17;5.30;;;;;;;14.92;83.98;99898.09;4925665;29;20238;-69
2023/04/23 02:05:03;;;;;;;6.00;5.40;;;;;;;14.89;83.96;99897.53;4932203;29;20228;-72
2023/04/23 02:07:30;;;;;;;6.07;4.50;;;;;;;14.86;83.56;99892.50;4933563;29;20229;-72
2023/04/23 02:09:56;;;;;;;5.63;5.13;;;;;;;14.82;83.96;99899.13;4931200;29;20220;-72
2023/04/23 02:12:23;;;;;;;5.63;5.13;;;;;;;14.79;83.90;99894.88;4935904;29;20244;-72
2023/04/23 02:14:51;;;;;;;6.50;5.90;;;;;;;14.78;84.44;99906.59;4928728;29;20694;-72
2023/04/23 02:17:20;;;;;;;10.33;8.63;;;;;;;14.74;84.10;99901.66;4932455;29;20656;-72
2023/04/23 02:19:46;;;;;;;12.10;10.80;;;;;;;14.69;84.24;99907.44;4930494;29;20216;-72
2023/04/23 02:22:13;;;;;;;13.50;12.10;;;;;;;14.66;84.41;99909.56;4931434;29;20242;-72
2023/04/23 02:24:40;;;;;;;16.37;14.13;;;;;;;14.62;84.33;99905.47;4936985;29;20209;-71
2023/04/23 02:27:07;;;;;;;18.03;15.83;;;;;;;14.56;84.26;99910.41;4926609;29;20260;-73
2023/04/23 02:29:33;;;;;;;18.90;16.13;;;;;;;14.51;84.32;99909.97;4930962;29;20210;-72
2023/04/23 02:32:01;;;;;;;20.07;16.57;;;;;;;14.48;84.48;99914.78;4930902;29;20232;-71
2023/04/23 02:34:27;;;;;;;21.40;16.60;;;;;;;14.45;84.42;99918.59;4931533;29;20209;-70
2023/04/23 02:36:54;;;;;;;18.03;16.07;;;;;;;14.42;84.88;99916.19;4931117;29;20690;-70
2023/04/23 02:39:20;;;;;;;19.57;16.90;;;;;;;14.41;85.00;99919.00;4931447;29;20730;-69
2023/04/23 02:41:47;;;;;;;21.27;17.07;;;;;;;14.38;85.10;99925.44;4926114;29;20232;-70
2023/04/23 02:44:13;;;;;;;18.47;16.47;;;;;;;14.35;85.10;99920.34;4926399;29;20216;-70
2023/04/23 02:46:40;;;;;;;20.67;16.50;;;;;;;14.33;85.32;99927.69;4930819;29;20393;-70
2023/04/23 02:49:07;;;;;;;23.87;17.40;;;;;;;14.28;86.10;99919.22;4931820;29;20229;-70
2023/04/23 02:51:34;;;;;;;19.73;16.73;;;;;;;14.27;86.12;99927.41;4934056;28;20231;-70
2023/04/23 02:54:02;;;;;;;20.80;17.83;;;;;;;14.25;86.52;99920.34;4930906;29;20213;-70
2023/04/23 02:56:29;;;;;;;19.63;16.47;;;;;;;14.23;86.68;99926.81;4931006;28;20210;-70
2023/04/23 02:58:55;;;;;;;22.33;18.10;;;;;;;14.20;86.93;99921.75;4930917;29;20305;-70
2023/04/23 03:01:22;;;;;;;20.07;17.17;;;;;;;14.16;87.05;99929.19;4932677;29;20248;-70
2023/04/23 03:03:48;;;;;;;23.83;18.57;;;;;;;14.14;87.59;99922.31;4928898;29;20698;-70
2023/04/23 03:06:16;;;;;;;21.97;18.10;;;;;;;14.12;88.24;99919.75;4929838;29;20206;-70
2023/04/23 03:08:43;;;;;;;22.17;17.23;;;;;;;14.11;88.39;99922.59;4929686;29;20225;-70
2023/04/23 03:11:09;;;;;;;19.50;16.80;;;;;;;14.10;88.22;99927.09;4932318;29;20247;-70
2023/04/23 03:13:36;;;;;;;21.33;18.00;;;;;;;14.09;88.84;99935.25;4929445;29;20240;-70
2023/04/23 03:16:02;;;;;;;22.87;18.40;;;;;;;14.06;88.88;99931.00;4931162;29;20217;-73
2023/04/23 03:18:29;;;;;;;20.53;17.57;;;;;;;14.05;89.18;99933.81;4931166;29;20211;-70
2023/04/23 03:20:55;;;;;;;21.43;17.53;;;;;;;14.05;89.09;99936.50;4928252;29;20202;-69
2023/04/23 03:23:24;;;;;;;24.77;18.33;;;;;;;14.04;89.71;99938.34;4930971;29;20232;-72
2023/04/23 03:25:51;;;;;;;22.57;18.10;;;;;;;14.03;89.43;99935.78;4927872;29;20213;-70
2023/04/23 03:28:17;;;;;;;23.67;18.73;;;;;;;14.01;89.63;99935.06;4929253;29;20603;-70
2023/04/23 03:30:43;;;;;;;20.80;17.43;;;;;;;14.00;90.00;99936.06;4927941;29;20209;-72
2023/04/23 03:33:10;;;;;;;21.77;17.10;;;;;;;13.98;89.95;99938.88;4925127;29;20225;-72
2023/04/23 03:35:37;;;;;;;23.73;17.40;;;;;;;13.97;90.01;99941.72;4923923;29;20214;-71
2023/04/23 03:38:03;;;;;;;22.37;17.40;;;;;;;13.95;90.33;99941.00;4927137;29;20298;-73
2023/04/23 03:40:31;;;;;;;20.50;17.90;;;;;;;13.93;90.36;99935.78;4929433;29;20213;-71
2023/04/23 03:42:58;;;;;;;19.60;16.33;;;;;;;13.92;90.72;99943.94;4926377;29;20234;-70
2023/04/23 03:45:25;;;;;;;21.90;19.00;;;;;;;13.87;91.02;99949.69;4934906;29;20213;-70
2023/04/23 03:47:51;;;;;;;23.87;18.93;;;;;;;13.82;90.55;99944.72;4936452;29;20233;-70
2023/04/23 03:50:18;;;;;;;23.63;19.57;;;;;;;13.75;90.47;99943.59;4926886;29;20202;-71
2023/04/23 03:52:44;;;;;;;28.50;20.93;;;;;;;13.68;90.60;99945.09;4930703;29;20240;-71
2023/04/23 03:55:11;;;;;;;27.07;21.77;;;;;;;13.64;90.35;99942.81;4930968;29;20214;-71
2023/04/23 03:57:38;;;;;;;27.87;21.97;;;;;;;13.57;90.16;99955.91;4929002;29;20357;-70
2023/04/23 04:00:08;;;;;;;30.97;22.50;;;;;;;13.51;90.28;99951.06;4934327;29;20206;-73
2023/04/23 04:02:35;;;;;;;35.50;23.37;;;;;;;13.46;90.22;99953.28;4927812;29;20733;-73
2023/04/23 04:05:01;;;;;;;31.53;22.73;;;;;;;13.43;90.34;99961.59;4929101;29;20213;-71
2023/04/23 04:07:28;;;;;;;31.30;23.30;;;;;;;13.40;90.57;99957.38;4930611;29;20214;-72
2023/04/23 04:09:54;;;;;;;34.90;24.00;;;;;;;13.36;90.40;99961.28;4928060;29;20640;-73
2023/04/23 04:12:21;;;;;;;33.00;22.37;;;;;;;13.33;90.59;99952.66;4936294;29;20522;-72
2023/04/23 04:14:49;;;;;;;34.33;23.77;;;;;;;13.30;90.31;99958.25;4928891;29;20687;-73
2023/04/23 04:17:15;;;;;;;36.33;22.83;;;;;;;13.23;90.13;99959.78;4929812;29;20367;-72
2023/04/23 04:19:42;;;;;;;35.20;23.43;;;;;;;13.19;90.23;99965.38;4930000;29;20198;-72
2023/04/23 04:22:08;;;;;;;38.30;24.03;;;;;;;13.16;90.12;99975.50;4930461;28;20734;-72
2023/04/23 04:24:35;;;;;;;37.03;24.73;;;;;;;13.14;90.45;99970.22;4924891;29;20216;-72
2023/04/23 04:27:01;;;;;;;35.00;24.33;;;;;;;13.14;90.97;99970.22;4930213;29;20610;-72
2023/04/23 04:29:28;;;;;;;37.30;25.17;;;;;;;13.13;90.70;99973.03;4927127;29;20296;-71
2023/04/23 04:31:56;;;;;;;36.70;24.37;;;;;;;13.12;90.94;99966.84;4928276;29;20230;-72
2023/04/23 04:34:23;;;;;;;37.23;25.10;;;;;;;13.09;90.99;99977.78;4930490;29;20847;-72
2023/04/23 04:36:50;;;;;;;36.13;25.00;;;;;;;13.07;90.87;99979.78;4928448;29;20210;-72
2023/04/23 04:39:18;;;;;;;36.97;24.40;;;;;;;13.02;90.73;99981.13;4929357;29;20225;-72
2023/04/23 04:41:44;;;;;;;40.40;26.60;;;;;;;13.01;90.97;99976.75;4929508;29;20712;-72
2023/04/23 04:44:13;;;;;;;37.03;25.07;;;;;;;12.98;90.88;99985.03;4928276;29;20217;-72
2023/04/23 04:46:41;;;;;;;41.47;25.50;;;;;;;12.95;91.11;99991.47;4929658;29;20206;-72
2023/04/23 04:49:10;;;;;;;40.60;25.87;;;;;;;12.93;91.00;100000.59;4931933;29;20722;-72
2023/04/23 04:51:37;;;;;;;39.17;26.63;;;;;;;12.89;91.38;100002.69;4930465;29;20607;-72
2023/04/23 04:54:03;;;;;;;37.67;24.73;;;;;;;12.88;91.96;99997.47;4928077;29;20213;-72
2023/04/23 04:56:30;;;;;;;36.67;24.73;;;;;;;12.86;91.87;99997.59;4935423;29;20205;-72
2023/04/23 04:58:56;;;;;;;41.23;26.07;;;;;;;12.83;92.08;99997.84;4930822;29;20224;-72
2023/04/23 05:01:25;;;;;;;34.23;23.30;;;;;;;12.81;91.52;99995.31;4933129;29;20229;-71
2023/04/23 05:03:52;;;;;;;40.77;25.70;;;;;;;12.78;91.68;100000.91;4934812;29;20236;-71
2023/04/23 05:06:20;;;;;;;36.33;24.60;;;;;;;12.77;91.80;100012.56;4930517;29;20274;-72
2023/04/23 05:08:47;;;;;;;40.33;24.33;;;;;;;12.75;91.59;100016.31;4925657;29;20239;-72
2023/04/23 05:11:14;;;;;;;38.27;25.03;;;;;;;12.73;91.33;100019.13;4933026;28;20303;-72
2023/04/23 05:13:41;;;;;;;37.50;24.83;;;;;;;12.72;91.71;100013.94;4929650;29;20222;-72
2023/04/23 05:16:08;;;;;;;37.50;25.23;;;;;;;12.73;91.67;100011.09;4932372;29;20210;-71
2023/04/23 05:18:35;;;;;;;37.40;25.37;;;;;;;12.73;91.77;100015.59;4933226;29;20513;-71
2023/04/23 05:21:01;;;;;;;36.10;24.30;;;;;;;12.71;91.54;100014.91;4932646;29;20317;-71
2023/04/23 05:23:29;;;;;;;38.43;25.47;;;;;;;12.71;91.61;100015.75;4932486;29;20209;-72
2023/04/23 05:25:57;;;;;;;35.30;24.03;;;;;;;12.71;91.79;100013.09;4930792;29;20216;-71
2023/04/23 05:28:23;;;;;;;36.73;25.33;;;;;;;12.72;91.76;100016.59;4930920;29;20279;-73
2023/04/23 05:30:50;;;;;;;36.33;24.10;;;;;;;12.71;92.10;100020.25;4931463;29;20202;-71
2023/04/23 05:33:16;;;;;;;37.60;25.27;;;;;;;12.72;92.49;100019.28;4933589;29;20236;-72
2023/04/23 05:35:43;;;;;;;38.77;25.03;;;;;;;12.73;92.68;100029.81;4930079;29;20209;-71
2023/04/23 05:38:10;;;;;;;37.10;25.67;;;;;;;12.73;92.54;100032.47;4932752;29;20205;-71
2023/04/23 05:40:38;;;;;;;37.50;24.83;;;;;;;12.75;92.56;100027.00;4939384;29;20221;-72
2023/04/23 05:43:05;;;;;;;36.27;24.27;;;;;;;12.76;93.02;100026.88;4930720;29;20232;-72
2023/04/23 05:45:31;;;;;;;39.10;25.03;;;;;;;12.76;93.14;100028.72;4933443;29;20216;-71
2023/04/23 05:47:58;;;;;;;36.37;24.23;;;;;;;12.74;93.23;100030.66;4933930;29;20213;-72
2023/04/23 05:50:25;;;;;;;38.83;26.53;;;;;;;12.71;93.20;100033.59;4933173;29;20210;-72
2023/04/23 05:52:51;;;;;;;37.93;24.00;;;;;;;12.70;93.18;100034.56;4931583;29;20358;-72
2023/04/23 05:55:19;;;;;;;38.10;25.00;;;;;;;12.71;93.65;100036.28;4929774;29;20213;-72
2023/04/23 05:57:47;;;;;;;39.77;25.03;;;;;;;12.73;93.59;100037.81;4931690;29;20666;-71
2023/04/23 06:00:14;;;;;;;37.93;24.57;;;;;;;12.74;93.86;100042.19;4932758;29;20667;-72
2023/04/23 06:02:41;;;;;;;39.70;25.23;;;;;;;12.76;94.12;100039.41;4936787;28;20232;-72
2023/04/23 06:05:08;;;;;;;37.87;24.13;;;;;;;12.78;94.15;100057.00;4932316;29;20217;-74
2023/04/23 06:07:35;;;;;;;37.57;25.53;;;;;;;12.78;94.50;100059.69;4931850;29;20220;-73
2023/04/23 06:10:03;;;;;;;40.37;25.40;;;;;;;12.79;94.41;100060.53;4931436;29;21313;-72
2023/04/23 06:12:30;;;;;;;41.20;25.63;;;;;;;12.78;94.55;100065.03;4930090;29;20237;-73
2023/04/23 06:14:58;;;;;;;38.23;24.80;;;;;;;12.79;94.68;100069.41;4933435;29;20209;-71
2023/04/23 06:17:24;;;;;;;38.80;25.80;;;;;;;12.77;94.63;100066.00;4938600;28;20225;-72
2023/04/23 06:19:51;;;;;;;41.00;26.87;;;;;;;12.77;94.37;100062.47;4931298;29;20205;-72
2023/04/23 06:22:17;;;;;;;40.17;25.50;;;;;;;12.76;94.07;100055.44;4932024;29;20264;-72
2023/04/23 06:24:43;;;;;;;40.10;24.93;;;;;;;12.75;94.52;100053.72;4929681;29;20208;-71
2023/04/23 06:27:10;;;;;;;35.53;25.20;;;;;;;12.74;94.66;100052.03;4930232;29;20204;-72
2023/04/23 06:29:36;;;;;;;37.67;25.17;;;;;;;12.71;94.01;100057.66;4937592;29;20241;-72
2023/04/23 06:32:04;;;;;;;37.73;24.43;;;;;;;12.69;93.41;100056.94;4931328;29;20241;-72
2023/04/23 06:34:31;;;;;;;36.13;23.90;;;;;;;12.65;93.01;100053.66;4929277;29;20209;-72
2023/04/23 06:36:58;;;;;;;38.83;24.07;;;;;;;12.66;93.29;100058.03;4931550;29;20678;-72
2023/04/23 06:39:25;;;;;;;36.00;25.07;;;;;;;12.66;92.99;100054.50;4934942;29;20210;-71
2023/04/23 06:41:51;;;;;;;34.93;23.97;;;;;;;12.65;92.61;100052.78;4935445;29;20265;-72
2023/04/23 06:44:18;;;;;;;39.73;25.43;;;;;;;12.62;91.87;100048.53;4929621;29;20220;-72
2023/04/23 06:46:44;;;;;;;36.43;24.60;;;;;;;12.62;91.81;100045.03;4929212;29;20218;-72
2023/04/23 06:49:12;;;;;;;36.43;24.70;;;;;;;12.63;91.60;100042.22;4927342;29;20227;-72
2023/04/23 06:51:38;;;;;;;36.63;24.17;;;;;;;12.64;91.66;100045.75;4929724;29;20260;-71
2023/04/23 06:54:05;;;;;;;37.13;24.73;;;;;;;12.67;91.46;100053.53;4929098;29;20745;-71
2023/04/23 06:56:31;;;;;;;38.83;25.70;;;;;;;12.70;91.34;100054.13;4931749;29;20216;-72
2023/04/23 06:58:58;;;;;;;39.97;25.33;;;;;;;12.74;91.40;100050.22;4930141;29;20374;-73
2023/04/23 07:01:25;;;;;;;37.67;24.37;;;;;;;12.78;91.11;100032.97;4926849;29;20242;-72
2023/04/23 07:03:53;;;;;;;37.53;24.47;;;;;;;12.81;90.81;100042.56;4925223;29;20202;-71
2023/04/23 07:06:21;;;;;;;36.50;25.07;;;;;;;12.85;90.64;100039.50;4922149;29;20607;-72
2023/04/23 07:08:47;;;;;;;36.40;25.37;;;;;;;12.90;90.50;100041.78;4929323;29;20237;-72
2023/04/23 07:11:14;;;;;;;39.40;26.13;;;;;;;12.94;90.51;100039.72;4922818;29;20238;-72
2023/04/23 07:13:40;;;;;;;37.27;25.90;;;;;;;12.97;90.46;100034.09;4927856;29;20210;-71
2023/04/23 07:16:07;;;;;;;39.70;26.23;;;;;;;13.03;91.17;100031.78;4926139;29;20205;-71
2023/04/23 07:18:33;;;;;;;40.63;25.53;;;;;;;13.09;91.03;100023.25;4924799;29;20687;-72
2023/04/23 07:21:00;;;;;;;37.20;24.33;;;;;;;13.15;90.99;100019.25;4925562;29;20218;-72
2023/04/23 07:23:27;;;;;;;38.73;25.80;;;;;;;13.20;90.54;100025.06;4923843;29;20209;-72
2023/04/23 07:25:54;;;;;;;35.73;24.03;;;;;;;13.24;90.20;100022.97;4929028;29;20218;-72
2023/04/23 07:28:21;;;;;;;36.33;24.17;;;;;;;13.29;90.08;100029.63;4927705;29;20209;-71
2023/04/23 07:30:47;;;;;;;36.53;23.17;;;;;;;13.37;89.71;100023.63;4925588;29;20226;-72
2023/04/23 07:33:14;;;;;;;30.60;21.77;;;;;;;13.43;88.46;100023.97;4926272;29;20233;-71
2023/04/23 07:35:40;;;;;;;29.40;20.87;;;;;;;13.47;87.00;100019.19;4930017;29;20206;-72
2023/04/23 07:38:07;;;;;;;26.90;19.30;;;;;;;13.52;85.95;100014.31;4929268;29;20219;-73
2023/04/23 07:40:35;;;;;;;26.03;19.03;;;;;;;13.52;83.73;100023.16;4931152;29;20201;-72
2023/04/23 07:43:02;;;;;;;24.90;18.43;;;;;;;13.51;82.49;100026.81;4929006;29;20229;-72
2023/04/23 07:45:28;;;;;;;24.00;18.37;;;;;;;13.51;80.95;100026.81;4928245;29;20206;-73
2023/04/23 07:47:55;;;;;;;26.80;18.03;;;;;;;13.54;79.89;100025.72;4926552;29;20589;-73
2023/04/23 07:50:21;;;;;;;25.10;18.17;;;;;;;13.60;79.65;100030.56;4929917;29;20806;-72
2023/04/23 07:52:48;;;;;;;27.27;19.50;;;;;;;13.73;79.40;100014.28;4927102;29;21217;-73
2023/04/23 07:55:14;;;;;;;28.77;20.13;;;;;;;13.89;78.83;100010.16;4927198;29;20206;-73
2023/04/23 07:57:42;;;;;;;29.43;20.93;;;;;;;14.04;77.93;100009.78;4927827;29;20217;-72
2023/04/23 08:00:10;;;;;;;25.43;18.03;;;;;;;14.16;76.59;100006.84;4925875;29;20687;-73
2023/04/23 08:02:36;;;;;;;27.83;18.60;;;;;;;14.29;76.91;100003.97;4923679;29;20256;-73
2023/04/23 08:05:03;;;;;;;26.80;18.93;;;;;;;14.45;76.36;99998.97;4928260;29;20217;-73
2023/04/23 08:07:29;;;;;;;22.57;16.87;;;;;;;14.59;74.68;99998.56;4929110;29;20823;-73
2023/04/23 08:10:01;;;;;;;19.43;15.17;;;;;;;14.73;73.34;99989.25;4922053;29;20265;-74
2023/04/23 08:12:28;;;;;;;22.63;16.53;;;;;;;14.83;71.58;99987.44;4920354;29;20233;-73
2023/04/23 08:14:56;;;;;;;23.57;17.40;;;;;;;14.95;71.52;99993.50;4923991;29;20714;-73
2023/04/23 08:17:22;;;;;;;25.60;18.07;;;;;;;15.13;71.83;99999.00;4926016;29;20656;-73
2023/04/23 08:19:48;;;;;;;27.13;19.17;;;;;;;15.29;70.76;99986.72;4926265;29;21052;-74
2023/04/23 08:22:16;;;;;;;26.43;19.13;;;;;;;15.43;68.96;99992.59;4931106;28;20232;-74
2023/04/23 08:24:42;;;;;;;26.27;18.70;;;;;;;15.49;67.65;99992.88;4923817;29;20205;-71
2023/04/23 08:27:09;;;;;;;25.57;18.37;;;;;;;15.52;67.66;99986.41;4921462;29;20205;-71
2023/04/23 08:29:35;;;;;;;24.37;17.60;;;;;;;15.61;68.30;99997.13;4926184;29;20238;-71
2023/04/23 08:32:03;;;;;;;24.17;17.20;;;;;;;15.78;67.69;99986.63;4919960;29;20710;-72
2023/04/23 08:34:30;;;;;;;22.03;15.73;;;;;;;15.88;65.32;99987.44;4923121;29;20234;-72
2023/04/23 08:36:56;;;;;;;18.93;14.50;;;;;;;15.89;64.30;99976.56;4927644;29;20213;-72
2023/04/23 08:39:23;;;;;;;18.27;15.13;;;;;;;15.96;64.47;99980.31;4928709;29;20206;-72
2023/04/23 08:41:54;;;;;;;17.37;14.40;;;;;;;16.07;62.17;99981.16;4927401;29;20236;-72
2023/04/23 08:44:23;;;;;;;16.97;12.70;;;;;;;16.18;61.45;99994.38;4920309;29;20207;-72
2023/04/23 08:46:50;;;;;;;12.97;11.07;;;;;;;16.27;58.76;99990.81;4927512;29;20580;-72
2023/04/23 08:49:18;;;;;;;12.77;10.27;;;;;;;16.34;58.31;99983.81;4925109;29;20611;-73
2023/04/23 08:51:49;;;;;;;17.07;12.33;;;;;;;16.42;56.52;99991.16;4927518;29;20236;-72
2023/04/23 08:54:21;;;;;;;15.40;11.37;;;;;;;16.53;56.99;99986.41;4928470;29;20211;-72
2023/04/23 08:56:50;;;;;;;14.47;12.03;;;;;;;16.65;55.78;99977.16;4922047;28;20687;-71
2023/04/23 08:59:19;;;;;;;12.27;10.27;;;;;;;16.79;55.41;99975.78;4929446;29;20231;-71
2023/04/23 09:01:46;;;;;;;11.73;8.90;;;;;;;16.86;52.91;99979.53;4924611;29;20235;-72
2023/04/23 09:04:15;;;;;;;10.20;8.63;;;;;;;16.94;52.78;99976.09;4922718;29;20223;-72
2023/04/23 09:06:43;;;;;;;11.23;10.03;;;;;;;17.06;51.62;99968.63;4923142;29;20214;-69
2023/04/23 09:09:11;;;;;;;11.70;9.93;;;;;;;17.15;51.97;99960.47;4918083;29;20213;-72
2023/04/23 09:11:38;;;;;;;12.53;11.23;;;;;;;17.22;51.41;99958.84;4921118;29;20746;-69
2023/04/23 09:14:05;;;;;;;12.80;11.40;;;;;;;17.35;52.11;99961.97;4918576;29;20220;-70
2023/04/23 09:16:31;;;;;;;13.33;10.60;;;;;;;17.53;51.32;99959.25;4928580;29;20235;-70
2023/04/23 09:18:58;;;;;;;11.73;10.20;;;;;;;17.64;50.90;99947.38;4922453;29;20226;-71
2023/04/23 09:21:25;;;;;;;10.60;9.27;;;;;;;17.72;50.14;99952.84;4921542;29;20234;-70
2023/04/23 09:23:53;;;;;;;10.87;9.73;;;;;;;17.78;50.80;99952.16;4925594;29;20210;-70
2023/04/23 09:26:20;;;;;;;11.93;10.00;;;;;;;17.91;50.85;99943.66;4919627;29;20216;-70
2023/04/23 09:28:49;;;;;;;11.87;9.67;;;;;;;18.04;49.99;99942.22;4921984;29;20265;-73
2023/04/23 09:31:19;;;;;;;10.87;9.03;;;;;;;18.17;50.11;99943.59;4924354;29;20230;-71
2023/04/23 09:33:51;;;;;;;9.77;7.93;;;;;;;18.26;49.34;99942.63;4929541;29;20229;-71
2023/04/23 09:36:20;;;;;;;9.67;8.17;;;;;;;18.37;48.58;99945.00;4924340;29;20208;-70
2023/04/23 09:38:47;;;;;;;8.80;7.90;;;;;;;18.45;48.30;99941.50;4929781;29;20212;-71
2023/04/23 09:41:25;;;;;;;9.60;8.30;;;;;;;18.54;48.79;99940.50;4927077;29;20207;-71
2023/04/23 09:43:53;;;;;;;10.03;8.93;;;;;;;18.61;47.53;99939.72;4930582;29;20215;-71
2023/04/23 09:46:32;;;;;;;7.80;7.00;;;;;;;18.71;47.56;99936.84;4928451;29;20299;-70
2023/04/23 09:49:00;;;;;;;8.57;7.77;;;;;;;18.75;46.72;99927.41;4928102;28;20210;-72
2023/04/23 09:51:27;;;;;;;9.20;8.30;;;;;;;18.83;46.86;99935.50;4920640;29;20243;-70
2023/04/23 09:53:54;;;;;;;9.47;7.57;;;;;;;18.92;46.23;99941.78;4931062;29;20244;-71
2023/04/23 09:56:20;;;;;;;7.10;6.40;;;;;;;18.99;46.18;99948.16;4926714;29;20228;-71
2023/04/23 09:58:48;;;;;;;6.37;5.67;;;;;;;19.03;45.35;99939.56;4927645;29;20216;-72
2023/04/23 10:01:15;;;;;;;6.17;5.57;;;;;;;19.05;44.75;99932.16;4925423;29;20207;-70
2023/04/23 10:03:42;;;;;;;6.53;5.77;;;;;;;19.10;45.56;99923.56;4926762;29;20217;-70
2023/04/23 10:06:13;;;;;;;6.37;5.77;;;;;;;19.21;45.79;99919.66;4928610;29;20287;-69
2023/04/23 10:08:41;;;;;;;6.60;6.00;;;;;;;19.29;45.37;99938.56;4926715;29;20224;-70
2023/04/23 10:11:07;;;;;;;6.67;6.00;;;;;;;19.33;44.67;99924.56;4927815;29;20239;-70
2023/04/23 10:13:34;;;;;;;6.53;5.67;;;;;;;19.37;44.76;99920.47;4929896;29;20212;-70
2023/04/23 10:16:05;;;;;;;7.63;6.83;;;;;;;19.47;45.11;99919.47;4928347;29;20209;-71
2023/04/23 10:18:33;;;;;;;7.53;6.23;;;;;;;19.54;44.51;99915.06;4930697;29;20332;-70
2023/04/23 10:21:02;;;;;;;7.13;6.43;;;;;;;19.60;44.52;99912.53;4927323;29;20219;-71
2023/04/23 10:23:29;;;;;;;6.73;6.13;;;;;;;19.65;44.10;99906.63;4928652;28;20703;-70
2023/04/23 10:25:59;;;;;;;7.80;7.00;;;;;;;19.74;44.37;99914.50;4928678;29;20209;-70
2023/04/23 10:28:30;;;;;;;7.37;6.67;;;;;;;19.84;44.34;99899.97;4927089;29;20214;-72
2023/04/23 10:30:58;;;;;;;8.33;6.90;;;;;;;19.86;43.42;99909.59;4925946;29;20232;-70
2023/04/23 10:33:26;;;;;;;7.40;6.70;;;;;;;19.89;43.26;99901.09;4928976;29;20211;-70
2023/04/23 10:35:55;;;;;;;9.23;7.70;;;;;;;19.96;43.82;99899.41;4925322;29;20208;-70
2023/04/23 10:38:23;;;;;;;7.40;6.70;;;;;;;19.99;43.32;99901.75;4927950;29;20219;-71
2023/04/23 10:40:55;;;;;;;8.30;7.00;;;;;;;19.97;42.63;99895.69;4921620;29;20213;-70
2023/04/23 10:43:22;;;;;;;7.43;6.67;;;;;;;19.96;43.77;99912.06;4924477;29;20243;-70
2023/04/23 10:45:50;;;;;;;7.03;6.33;;;;;;;20.02;44.21;99911.38;4922790;29;20218;-71
2023/04/23 10:48:16;;;;;;;7.40;6.60;;;;;;;20.05;43.54;99905.63;4922175;29;20743;-70
2023/04/23 10:50:46;;;;;;;6.07;5.50;;;;;;;20.05;44.35;99911.88;4923566;29;20241;-72
2023/04/23 10:53:19;;;;;;;6.23;5.63;;;;;;;20.16;44.07;99893.56;4926778;28;20676;-71
2023/04/23 10:55:47;;;;;;;6.33;5.73;;;;;;;20.25;43.00;99895.19;4928717;29;20690;-70
2023/04/23 10:58:13;;;;;;;4.83;4.40;;;;;;;20.39;43.62;99891.78;4925377;29;20219;-70
2023/04/23 11:00:45;;;;;;;5.77;5.27;;;;;;;20.51;43.43;99895.75;4926376;29;20211;-71
2023/04/23 11:03:30;;;;;;;5.43;4.97;;;;;;;20.61;42.87;99890.09;4925198;29;20714;-71
2023/04/23 11:06:00;;;;;;;4.97;4.47;;;;;;;20.63;42.71;99888.91;4933441;29;20713;-70
2023/04/23 11:08:30;;;;;;;5.22;4.78;;;;;;;20.71;42.35;99882.59;4924337;29;20215;-70
2023/04/23 11:10:59;;;;;;;4.57;3.60;;;;;;;20.76;41.61;99880.19;4932503;29;20308;-70
2023/04/23 11:13:26;;;;;;;4.13;3.73;;;;;;;20.77;41.48;99879.16;4926628;29;20231;-70
2023/04/23 11:16:14;;;;;;;4.85;3.53;;;;;;;20.86;41.91;99878.06;4931832;29;20291;-70
2023/04/23 11:19:02;;;;;;;4.32;3.90;;;;;;;20.93;41.43;99873.63;4923221;29;20509;-70
2023/04/23 11:22:01;;;;;;;4.38;3.95;;;;;;;20.95;41.87;99866.16;4924763;29;20232;-70
2023/04/23 11:24:30;;;;;;;4.20;3.80;;;;;;;21.00;41.37;99865.59;4921360;29;20518;-69